Time;durP1;ratioP1;P1;durP2;ratioP2;P2;SDS_P1;SDS_P2;PMS_P1;PMS_P2;Temp;Humidity;BMP_temperature;BMP_pressure;BME280_temperature;BME280_humidity;BME280_pressure;Samples;Min_cycle;Max_cycle;Signal;HPM_P1;HPM_P2
2022/04/15 00:01:40;;;;;;;7.70;4.40;;;;;;;12.57;70.14;99587.73;103615;1300;23910;-27
2022/04/15 00:04:09;;;;;;;9.00;5.80;;;;;;;12.58;70.97;99589.32;103688;1300;22512;-30
2022/04/15 00:06:38;;;;;;;12.30;6.10;;;;;;;12.52;70.93;99589.92;103663;1300;22766;-25
2022/04/15 00:09:07;;;;;;;7.10;5.80;;;;;;;12.50;70.76;99593.77;103808;1300;23635;-30
2022/04/15 00:11:37;;;;;;;9.80;6.10;;;;;;;12.43;72.21;99595.80;103799;1300;25001;-25
2022/04/15 00:14:06;;;;;;;6.50;5.90;;;;;;;12.47;71.93;99598.86;103709;1300;22723;-28
2022/04/15 00:16:35;;;;;;;10.20;4.90;;;;;;;12.39;71.91;99600.35;103830;1300;22827;-28
2022/04/15 00:19:04;;;;;;;18.10;5.20;;;;;;;12.34;72.32;99592.01;103776;1300;23595;-30
2022/04/15 00:21:33;;;;;;;8.50;5.10;;;;;;;12.33;71.88;99588.48;103781;1300;23917;-29
2022/04/15 00:24:03;;;;;;;6.40;4.70;;;;;;;12.30;72.45;99588.34;103592;1300;25212;-29
2022/04/15 00:26:32;;;;;;;5.30;3.70;;;;;;;12.24;73.16;99592.01;103602;1300;24220;-25
2022/04/15 00:29:03;;;;;;;7.80;4.70;;;;;;;12.21;73.10;99590.48;103589;1300;22633;-25
2022/04/15 00:31:33;;;;;;;7.50;5.40;;;;;;;12.24;73.02;99598.15;103523;1300;22502;-25
2022/04/15 00:34:02;;;;;;;32.90;8.40;;;;;;;12.17;74.28;99598.87;103555;1300;25288;-28
2022/04/15 00:36:31;;;;;;;8.80;5.00;;;;;;;12.11;74.78;99594.41;103593;1300;23581;-27
2022/04/15 00:39:00;;;;;;;6.50;5.20;;;;;;;12.16;73.79;99596.05;103589;1300;23599;-25
2022/04/15 00:41:29;;;;;;;7.40;5.30;;;;;;;12.09;74.51;99596.11;103543;1300;23635;-29
2022/04/15 00:43:58;;;;;;;8.10;3.70;;;;;;;12.02;76.59;99595.67;103502;1300;24253;-27
2022/04/15 00:46:27;;;;;;;4.80;3.50;;;;;;;11.99;77.58;99601.83;103509;1300;23894;-25
2022/04/15 00:48:56;;;;;;;6.80;5.30;;;;;;;11.95;77.88;99604.63;103645;1300;24253;-25
2022/04/15 00:51:25;;;;;;;9.00;6.80;;;;;;;11.85;79.14;99609.54;103546;1300;24991;-29
2022/04/15 00:53:54;;;;;;;9.70;7.10;;;;;;;11.77;80.26;99617.59;103585;1300;23978;-25
2022/04/15 00:56:23;;;;;;;9.00;5.30;;;;;;;11.77;80.35;99620.98;103573;1300;22596;-28
2022/04/15 00:58:52;;;;;;;10.40;7.20;;;;;;;11.63;81.67;99621.77;103597;1300;23803;-28
2022/04/15 01:01:21;;;;;;;7.10;6.00;;;;;;;11.63;81.32;99616.44;103553;1300;23749;-25
2022/04/15 01:03:50;;;;;;;8.00;5.30;;;;;;;11.65;81.71;99616.58;103565;1300;24237;-29
2022/04/15 01:06:19;;;;;;;8.50;4.90;;;;;;;11.63;82.64;99619.51;103523;1300;24975;-29
2022/04/15 01:08:48;;;;;;;6.30;5.30;;;;;;;11.58;82.81;99620.34;103601;1300;23803;-29
2022/04/15 01:11:17;;;;;;;6.10;4.40;;;;;;;11.55;83.32;99615.19;103512;1300;24003;-28
2022/04/15 01:13:46;;;;;;;6.80;5.70;;;;;;;11.44;83.78;99617.64;103541;1299;24273;-25
2022/04/15 01:16:15;;;;;;;7.70;5.40;;;;;;;11.41;83.86;99617.54;103541;1300;22499;-31
2022/04/15 01:18:44;;;;;;;9.90;6.10;;;;;;;11.37;84.81;99623.26;103509;1300;24336;-30
2022/04/15 01:21:13;;;;;;;9.40;5.10;;;;;;;11.30;85.21;99627.42;103524;1300;24194;-29
2022/04/15 01:23:42;;;;;;;6.90;5.00;;;;;;;11.21;85.74;99628.31;103573;1300;24222;-25
2022/04/15 01:26:11;;;;;;;6.60;4.90;;;;;;;11.09;87.64;99626.69;103588;1300;23788;-27
2022/04/15 01:28:40;;;;;;;8.30;5.60;;;;;;;11.04;88.65;99628.33;103568;1300;22535;-26
2022/04/15 01:31:09;;;;;;;11.00;5.70;;;;;;;11.01;88.74;99625.49;103584;1300;24192;-28
2022/04/15 01:33:38;;;;;;;5.30;4.80;;;;;;;10.86;89.48;99624.34;103562;1300;24218;-30
2022/04/15 01:36:07;;;;;;;6.40;4.60;;;;;;;10.75;90.09;99628.03;103570;1300;24302;-29
2022/04/15 01:38:35;;;;;;;9.10;6.30;;;;;;;10.83;90.58;99633.29;103541;1300;23741;-28
2022/04/15 01:41:04;;;;;;;9.80;5.80;;;;;;;10.76;92.16;99642.10;103565;1300;24500;-25
2022/04/15 01:43:33;;;;;;;10.00;5.60;;;;;;;10.69;92.94;99644.56;103594;1300;22941;-28
2022/04/15 01:46:02;;;;;;;7.60;4.80;;;;;;;10.60;94.06;99647.48;103551;1300;22770;-28
2022/04/15 01:48:31;;;;;;;10.60;5.30;;;;;;;10.38;96.39;99655.36;103563;1300;23858;-26
2022/04/15 01:51:00;;;;;;;3.80;3.00;;;;;;;10.28;97.84;99660.82;103435;1302;22963;-25
2022/04/15 01:53:29;;;;;;;11.40;5.20;;;;;;;10.31;97.74;99665.77;103512;1300;23594;-29
2022/04/15 01:55:58;;;;;;;6.40;4.20;;;;;;;10.29;98.18;99668.23;103545;1300;25025;-24
2022/04/15 01:58:27;;;;;;;7.10;4.10;;;;;;;10.29;97.92;99670.78;103487;1301;23914;-25
2022/04/15 02:00:56;;;;;;;8.40;4.90;;;;;;;10.46;97.52;99669.58;103585;1300;22511;-28
2022/04/15 02:03:25;;;;;;;6.70;4.40;;;;;;;10.39;97.35;99669.46;103585;1300;24482;-25
2022/04/15 02:05:54;;;;;;;6.60;4.00;;;;;;;10.30;98.53;99666.23;103488;1300;23517;-31
2022/04/15 02:08:22;;;;;;;2.90;1.90;;;;;;;10.37;98.74;99668.90;103515;1300;22955;-31
2022/04/15 02:10:51;;;;;;;6.10;4.90;;;;;;;10.59;98.43;99667.21;103563;1300;22875;-25
2022/04/15 02:13:20;;;;;;;7.60;5.90;;;;;;;10.30;99.82;99673.56;103488;1300;25245;-31
2022/04/15 02:15:49;;;;;;;8.90;6.30;;;;;;;10.29;100.00;99671.97;103567;1300;22734;-29
2022/04/15 02:18:18;;;;;;;16.60;7.10;;;;;;;10.18;100.00;99669.67;103558;1300;23741;-31
2022/04/15 02:20:47;;;;;;;5.90;4.60;;;;;;;10.34;100.00;99677.55;103633;1300;22502;-26
2022/04/15 02:23:16;;;;;;;16.10;6.50;;;;;;;10.33;100.00;99676.71;103604;1300;22793;-25
2022/04/15 02:25:45;;;;;;;10.90;4.90;;;;;;;10.33;100.00;99670.59;103457;1302;22502;-31
2022/04/15 02:28:14;;;;;;;12.30;5.80;;;;;;;10.26;100.00;99661.98;103585;1300;23761;-30
2022/04/15 02:30:47;;;;;;;14.10;7.00;;;;;;;10.28;100.00;99655.23;103585;1300;23703;-28
2022/04/15 02:33:16;;;;;;;8.20;4.30;;;;;;;10.27;100.00;99651.14;103556;1300;22516;-28
2022/04/15 02:35:45;;;;;;;7.70;5.80;;;;;;;10.18;100.00;99654.90;103520;1300;23610;-29
2022/04/15 02:38:14;;;;;;;9.70;6.70;;;;;;;10.08;100.00;99657.04;103522;1300;24218;-26
2022/04/15 02:40:44;;;;;;;11.80;6.50;;;;;;;10.06;100.00;99656.39;103579;1300;24256;-31
2022/04/15 02:43:12;;;;;;;12.80;6.60;;;;;;;9.95;100.00;99654.35;103583;1300;25099;-25
2022/04/15 02:45:42;;;;;;;9.10;5.30;;;;;;;9.93;100.00;99648.10;103573;1300;22799;-25
2022/04/15 02:48:11;;;;;;;7.40;6.70;;;;;;;9.94;100.00;99646.25;103581;1300;22606;-25
2022/04/15 02:50:40;;;;;;;16.30;6.10;;;;;;;10.04;100.00;99639.95;103522;1300;23601;-25
2022/04/15 02:53:08;;;;;;;6.00;4.40;;;;;;;10.08;100.00;99639.70;103533;1300;24286;-28
2022/04/15 02:55:37;;;;;;;7.80;6.00;;;;;;;10.04;100.00;99636.73;103540;1300;24346;-31
2022/04/15 02:58:06;;;;;;;17.70;7.00;;;;;;;10.08;100.00;99634.50;103521;1300;25026;-30
2022/04/15 03:00:35;;;;;;;10.10;6.60;;;;;;;10.11;100.00;99638.29;103588;1300;25079;-30
2022/04/15 03:03:04;;;;;;;11.10;5.50;;;;;;;10.11;100.00;99633.00;103553;1300;22506;-25
2022/04/15 03:05:33;;;;;;;7.20;5.10;;;;;;;10.16;100.00;99635.25;103489;1300;24356;-29
2022/04/15 03:08:02;;;;;;;10.90;6.00;;;;;;;10.26;100.00;99628.24;103582;1300;23753;-29
2022/04/15 03:10:31;;;;;;;7.40;5.50;;;;;;;10.27;100.00;99626.40;103552;1300;23889;-26
2022/04/15 03:13:00;;;;;;;9.30;6.10;;;;;;;10.13;100.00;99620.48;103586;1300;24226;-28
2022/04/15 03:15:29;;;;;;;16.10;6.50;;;;;;;10.12;100.00;99615.55;103385;1300;24328;-25
2022/04/15 03:17:58;;;;;;;8.70;5.90;;;;;;;10.06;100.00;99611.16;103615;1300;25048;-30
2022/04/15 03:20:28;;;;;;;10.40;6.40;;;;;;;10.16;100.00;99612.45;103574;1300;24392;-26
2022/04/15 03:22:57;;;;;;;8.50;5.40;;;;;;;10.17;100.00;99612.69;103547;1300;22493;-25
2022/04/15 03:25:26;;;;;;;6.60;5.60;;;;;;;10.15;100.00;99616.53;103593;1300;23961;-24
2022/04/15 03:27:55;;;;;;;9.50;6.10;;;;;;;10.14;100.00;99618.91;103552;1300;22793;-29
2022/04/15 03:30:24;;;;;;;8.70;5.40;;;;;;;10.21;100.00;99618.22;103564;1300;24264;-25
2022/04/15 03:32:53;;;;;;;8.80;6.30;;;;;;;10.23;100.00;99618.55;103645;1299;22518;-26
2022/04/15 03:35:22;;;;;;;7.70;5.50;;;;;;;10.22;100.00;99616.59;103572;1300;22508;-25
2022/04/15 03:37:51;;;;;;;7.50;6.30;;;;;;;10.19;100.00;99613.61;103602;1300;24224;-26
2022/04/15 03:40:21;;;;;;;7.90;5.90;;;;;;;10.16;100.00;99618.10;103605;1300;23904;-30
2022/04/15 03:42:50;;;;;;;9.00;6.90;;;;;;;10.13;100.00;99614.52;103593;1300;22498;-26
2022/04/15 03:45:22;;;;;;;11.00;6.10;;;;;;;10.04;100.00;99614.10;103539;1300;24363;-30
2022/04/15 03:47:52;;;;;;;6.90;4.70;;;;;;;10.00;100.00;99610.91;103456;1300;25347;-30
2022/04/15 03:50:21;;;;;;;10.30;5.80;;;;;;;9.86;100.00;99609.79;103533;1300;25193;-30
2022/04/15 03:52:50;;;;;;;11.40;7.00;;;;;;;9.92;100.00;99611.95;103612;1300;22719;-26
2022/04/15 03:55:21;;;;;;;7.30;6.40;;;;;;;9.91;100.00;99615.17;103561;1300;24447;-30
2022/04/15 03:57:50;;;;;;;7.60;6.80;;;;;;;9.95;100.00;99621.61;103567;1300;22646;-30
2022/04/15 04:00:20;;;;;;;6.70;4.90;;;;;;;9.93;100.00;99625.64;103532;1301;22512;-29
2022/04/15 04:02:52;;;;;;;8.50;5.20;;;;;;;9.98;100.00;99623.15;103520;1300;24295;-31
2022/04/15 04:05:21;;;;;;;7.40;5.50;;;;;;;9.89;100.00;99622.23;103596;1300;24010;-29
2022/04/15 04:07:51;;;;;;;7.60;5.70;;;;;;;9.84;100.00;99620.52;103539;1300;23834;-32
2022/04/15 04:10:20;;;;;;;6.90;4.90;;;;;;;9.82;100.00;99624.39;103439;1301;22498;-28
2022/04/15 04:12:49;;;;;;;10.50;6.10;;;;;;;9.92;100.00;99619.64;103274;1300;397975;-32
2022/04/15 04:15:18;;;;;;;6.30;4.80;;;;;;;9.99;100.00;99612.92;103545;1300;23597;-32
2022/04/15 04:17:48;;;;;;;4.80;3.90;;;;;;;9.97;100.00;99614.89;103560;1300;22506;-31
2022/04/15 04:20:17;;;;;;;6.30;4.10;;;;;;;9.86;100.00;99617.58;103532;1300;24340;-31
2022/04/15 04:22:46;;;;;;;12.10;3.30;;;;;;;9.72;100.00;99613.45;103557;1300;25416;-28
2022/04/15 04:25:15;;;;;;;3.10;2.70;;;;;;;9.75;100.00;99614.92;103592;1300;23848;-32
2022/04/15 04:27:44;;;;;;;3.80;2.60;;;;;;;9.64;100.00;99619.98;103530;1300;22793;-30
2022/04/15 04:30:14;;;;;;;3.70;2.70;;;;;;;9.62;100.00;99624.02;103585;1300;22503;-29
2022/04/15 04:32:52;;;;;;;4.50;3.10;;;;;;;9.60;100.00;99624.20;103532;1300;24997;-28
2022/04/15 04:35:21;;;;;;;6.00;2.80;;;;;;;9.64;100.00;99626.23;103547;1300;22511;-32
2022/04/15 04:37:50;;;;;;;2.20;1.30;;;;;;;9.63;100.00;99625.52;103535;1300;22502;-29
2022/04/15 04:40:19;;;;;;;5.60;2.40;;;;;;;9.61;100.00;99625.83;103499;1302;24251;-26
2022/04/15 04:42:49;;;;;;;2.30;1.90;;;;;;;9.63;100.00;99626.60;103535;1300;24214;-29
2022/04/15 04:45:19;;;;;;;2.50;2.20;;;;;;;9.71;100.00;99629.92;103546;1300;25230;-29
2022/04/15 04:47:48;;;;;;;3.90;3.30;;;;;;;9.68;100.00;99636.24;103538;1300;24209;-27
2022/04/15 04:50:17;;;;;;;3.30;2.80;;;;;;;9.68;100.00;99634.76;103559;1300;23867;-28
2022/04/15 04:52:47;;;;;;;3.40;2.90;;;;;;;9.76;100.00;99638.73;103508;1300;24202;-32
2022/04/15 04:55:16;;;;;;;4.00;2.50;;;;;;;9.69;100.00;99645.13;103525;1300;24990;-30
2022/04/15 04:57:45;;;;;;;3.20;2.80;;;;;;;9.71;100.00;99645.95;103618;1300;24237;-30
2022/04/15 05:00:16;;;;;;;3.20;2.80;;;;;;;9.73;100.00;99648.36;103585;1300;23641;-29
2022/04/15 05:02:45;;;;;;;3.90;3.40;;;;;;;9.75;100.00;99649.21;103334;1302;23623;-30
2022/04/15 05:05:15;;;;;;;5.30;4.30;;;;;;;9.85;100.00;99645.75;103561;1301;22516;-30
2022/04/15 05:07:44;;;;;;;9.50;4.60;;;;;;;9.80;100.00;99645.73;103571;1302;22512;-26
2022/04/15 05:10:12;;;;;;;8.80;5.60;;;;;;;9.85;100.00;99644.28;103563;1300;23866;-30
2022/04/15 05:12:41;;;;;;;6.10;4.90;;;;;;;9.88;100.00;99645.75;103584;1300;23599;-26
2022/04/15 05:15:11;;;;;;;5.40;4.60;;;;;;;9.91;100.00;99651.75;103607;1300;24978;-30
2022/04/15 05:17:41;;;;;;;4.80;4.00;;;;;;;9.96;100.00;99659.23;103632;1300;24972;-28
2022/04/15 05:20:09;;;;;;;7.30;5.30;;;;;;;9.98;100.00;99661.45;103497;1300;22827;-30
2022/04/15 05:22:38;;;;;;;7.80;4.60;;;;;;;10.11;100.00;99663.07;103590;1300;24264;-31
2022/04/15 05:25:07;;;;;;;8.50;5.10;;;;;;;10.08;100.00;99666.83;103511;1301;23878;-29
2022/04/15 05:27:37;;;;;;;6.10;4.90;;;;;;;10.12;100.00;99666.81;103567;1300;22824;-30
2022/04/15 05:30:06;;;;;;;7.30;5.00;;;;;;;10.20;100.00;99669.67;103549;1301;23768;-26
2022/04/15 05:32:35;;;;;;;8.10;6.30;;;;;;;10.23;100.00;99669.20;103587;1300;25092;-29
2022/04/15 05:35:05;;;;;;;7.40;5.90;;;;;;;10.20;100.00;99670.45;103570;1300;22508;-29
2022/04/15 05:37:34;;;;;;;7.10;5.50;;;;;;;10.22;100.00;99672.16;103595;1300;23788;-30
2022/04/15 05:40:03;;;;;;;8.10;6.20;;;;;;;10.20;100.00;99667.39;103554;1301;24218;-28
2022/04/15 05:42:32;;;;;;;6.30;4.80;;;;;;;10.24;100.00;99667.20;103569;1300;24975;-30
2022/04/15 05:45:01;;;;;;;10.80;6.90;;;;;;;10.28;100.00;99665.50;103561;1301;23983;-26
2022/04/15 05:47:30;;;;;;;8.80;7.30;;;;;;;10.28;100.00;99663.05;103582;1300;25006;-26
2022/04/15 05:49:59;;;;;;;8.00;7.30;;;;;;;10.29;100.00;99665.45;103624;1300;22797;-30
2022/04/15 05:52:28;;;;;;;8.60;6.60;;;;;;;10.30;100.00;99660.34;103562;1300;24226;-26
2022/04/15 05:54:57;;;;;;;8.80;7.80;;;;;;;10.45;100.00;99665.44;103501;1300;23613;-27
2022/04/15 05:57:26;;;;;;;10.40;8.30;;;;;;;10.36;100.00;99670.16;103598;1300;24222;-28
2022/04/15 05:59:55;;;;;;;9.50;8.20;;;;;;;10.36;100.00;99674.39;103592;1300;22799;-26
2022/04/15 06:02:24;;;;;;;9.30;8.20;;;;;;;10.47;100.00;99678.61;103570;1302;23802;-26
2022/04/15 06:04:53;;;;;;;8.30;7.00;;;;;;;10.40;100.00;99678.73;103516;1300;25001;-29
2022/04/15 06:07:22;;;;;;;8.80;6.80;;;;;;;10.47;100.00;99678.04;103568;1300;22945;-26
2022/04/15 06:09:51;;;;;;;12.30;8.50;;;;;;;10.58;100.00;99678.36;103499;1301;22491;-30
2022/04/15 06:12:21;;;;;;;5.90;5.20;;;;;;;10.71;100.00;99673.49;103531;1300;23856;-26
2022/04/15 06:14:51;;;;;;;9.00;7.70;;;;;;;10.75;100.00;99680.52;103480;1300;22494;-26
2022/04/15 06:17:22;;;;;;;8.00;5.70;;;;;;;10.76;100.00;99678.09;103595;1300;23795;-30
2022/04/15 06:19:51;;;;;;;13.00;5.40;;;;;;;11.13;100.00;99686.65;103517;1302;23598;-30
2022/04/15 06:22:20;;;;;;;4.70;4.10;;;;;;;11.18;99.45;99685.65;103447;1302;24246;-29
2022/04/15 06:24:49;;;;;;;7.00;4.50;;;;;;;10.94;99.82;99688.94;103546;1302;23901;-30
2022/04/15 06:27:18;;;;;;;9.50;7.60;;;;;;;11.00;99.84;99690.61;103473;1302;24274;-27
2022/04/15 06:29:47;;;;;;;9.40;7.70;;;;;;;10.80;100.00;99694.05;103543;1302;24374;-28
2022/04/15 06:32:16;;;;;;;11.20;8.80;;;;;;;10.92;100.00;99694.13;103564;1302;22917;-27
2022/04/15 06:34:45;;;;;;;10.20;6.60;;;;;;;11.05;100.00;99695.95;103650;1301;22915;-27
2022/04/15 06:37:14;;;;;;;12.40;9.30;;;;;;;10.78;100.00;99701.77;103526;1301;22508;-29
2022/04/15 06:39:43;;;;;;;14.10;6.40;;;;;;;10.67;100.00;99701.19;103550;1300;24212;-32
2022/04/15 06:42:12;;;;;;;9.70;6.10;;;;;;;10.75;100.00;99705.78;103541;1300;22884;-29
2022/04/15 06:44:41;;;;;;;10.00;8.30;;;;;;;10.73;100.00;99706.14;103538;1300;24024;-26
2022/04/15 06:47:10;;;;;;;10.90;8.20;;;;;;;10.56;100.00;99707.63;103556;1302;22892;-26
2022/04/15 06:49:39;;;;;;;13.10;7.60;;;;;;;10.80;100.00;99712.11;103599;1300;24214;-31
2022/04/15 06:52:08;;;;;;;10.80;8.70;;;;;;;10.76;100.00;99712.28;103536;1302;23643;-32
2022/04/15 06:54:37;;;;;;;9.00;6.60;;;;;;;10.86;100.00;99710.68;103502;1300;23738;-29
2022/04/15 06:57:06;;;;;;;16.40;9.80;;;;;;;10.99;100.00;99715.37;103511;1300;22503;-26
2022/04/15 06:59:35;;;;;;;12.70;10.10;;;;;;;10.91;100.00;99716.69;103576;1300;24212;-30
2022/04/15 07:02:05;;;;;;;13.80;10.10;;;;;;;10.95;100.00;99713.89;103599;1302;23958;-30
2022/04/15 07:04:34;;;;;;;9.70;8.50;;;;;;;11.12;100.00;99709.55;103423;1302;25092;-30
2022/04/15 07:07:03;;;;;;;9.10;6.10;;;;;;;11.61;99.73;99709.84;103602;1301;24288;-30
2022/04/15 07:09:33;;;;;;;12.50;8.50;;;;;;;11.70;97.61;99711.19;103551;1300;23670;-26
2022/04/15 07:12:02;;;;;;;6.70;4.40;;;;;;;11.81;96.95;99708.49;103602;1302;22635;-28
2022/04/15 07:14:33;;;;;;;9.10;6.70;;;;;;;11.82;94.00;99708.05;103539;1300;23081;-26
2022/04/15 07:17:02;;;;;;;10.50;8.20;;;;;;;12.18;93.17;99702.09;103488;1302;22772;-28
2022/04/15 07:19:31;;;;;;;7.00;5.50;;;;;;;12.02;92.47;99704.55;103568;1300;24341;-31
2022/04/15 07:22:00;;;;;;;7.00;4.60;;;;;;;12.42;90.99;99706.52;103587;1300;23596;-31
2022/04/15 07:24:30;;;;;;;11.00;6.80;;;;;;;12.32;89.49;99708.61;103546;1300;24214;-30
2022/04/15 07:26:59;;;;;;;6.30;5.60;;;;;;;12.01;91.69;99711.41;103544;1302;22624;-31
2022/04/15 07:29:30;;;;;;;8.20;7.20;;;;;;;12.00;91.74;99711.83;103555;1300;23614;-27
2022/04/15 07:31:59;;;;;;;6.50;5.30;;;;;;;12.10;90.37;99713.01;103603;1300;23995;-30
2022/04/15 07:34:29;;;;;;;7.50;5.00;;;;;;;12.45;89.21;99714.37;103573;1300;24268;-29
2022/04/15 07:36:59;;;;;;;10.20;7.70;;;;;;;12.28;89.05;99718.67;103454;1302;23602;-26
2022/04/15 07:39:28;;;;;;;7.90;5.20;;;;;;;12.53;90.07;99709.95;103579;1300;23996;-26
2022/04/15 07:41:57;;;;;;;6.30;4.60;;;;;;;13.08;87.20;99710.11;103585;1300;22919;-27
2022/04/15 07:44:27;;;;;;;6.50;3.30;;;;;;;13.23;83.90;99713.41;103545;1300;24981;-30
2022/04/15 07:46:56;;;;;;;7.90;5.50;;;;;;;13.16;84.05;99713.45;103540;1300;23192;-29
2022/04/15 07:49:25;;;;;;;9.80;7.00;;;;;;;13.26;82.51;99714.97;103595;1300;22708;-25
2022/04/15 07:51:54;;;;;;;8.50;3.50;;;;;;;12.87;84.26;99717.91;103536;1302;24197;-32
2022/04/15 07:54:23;;;;;;;6.50;4.50;;;;;;;13.18;83.56;99717.85;103446;1302;23607;-25
2022/04/15 07:56:51;;;;;;;9.70;4.80;;;;;;;12.86;84.06;99717.48;103555;1302;23806;-29
2022/04/15 07:59:20;;;;;;;24.00;4.00;;;;;;;12.73;85.78;99720.39;103589;1302;22578;-31
2022/04/15 08:01:49;;;;;;;7.10;5.50;;;;;;;12.72;85.23;99723.84;103570;1300;22511;-27
2022/04/15 08:04:19;;;;;;;3.50;3.10;;;;;;;12.92;82.99;99721.98;103592;1300;24251;-26
2022/04/15 08:06:48;;;;;;;8.60;6.80;;;;;;;12.52;84.46;99726.41;103564;1300;25029;-30
2022/04/15 08:09:18;;;;;;;9.40;5.80;;;;;;;12.34;86.86;99719.50;103610;1300;23915;-26
2022/04/15 08:11:47;;;;;;;10.20;8.20;;;;;;;12.76;86.65;99715.30;103540;1302;22954;-27
2022/04/15 08:14:16;;;;;;;10.90;7.20;;;;;;;13.04;85.59;99718.36;103562;1300;25131;-27
2022/04/15 08:16:45;;;;;;;7.80;6.00;;;;;;;13.22;84.39;99715.52;103573;1300;23571;-26
2022/04/15 08:19:13;;;;;;;5.60;4.30;;;;;;;13.48;82.52;99722.25;103564;1300;24249;-26
2022/04/15 08:21:42;;;;;;;4.80;3.90;;;;;;;13.50;82.93;99723.55;103569;1300;23602;-29
2022/04/15 08:24:11;;;;;;;6.10;5.00;;;;;;;14.08;79.81;99726.90;103576;1300;22775;-27
2022/04/15 08:26:42;;;;;;;3.60;2.90;;;;;;;14.18;76.81;99725.30;103530;1300;24290;-27
2022/04/15 08:29:11;;;;;;;6.60;4.20;;;;;;;13.71;79.51;99726.18;103512;1300;22499;-25
2022/04/15 08:31:40;;;;;;;6.70;5.40;;;;;;;13.69;79.17;99729.30;103544;1300;24218;-29
2022/04/15 08:34:09;;;;;;;6.50;4.30;;;;;;;13.65;79.22;99724.20;103590;1300;23820;-27
2022/04/15 08:36:38;;;;;;;7.50;5.30;;;;;;;13.29;80.77;99720.73;103548;1300;23770;-25
2022/04/15 08:39:07;;;;;;;6.80;5.40;;;;;;;13.05;82.04;99724.88;103563;1300;23639;-32
2022/04/15 08:41:41;;;;;;;7.20;6.30;;;;;;;13.34;81.48;99726.67;103542;1300;23647;-24
2022/04/15 08:44:10;;;;;;;7.20;6.30;;;;;;;12.92;82.72;99730.27;103538;1300;25026;-29
2022/04/15 08:46:39;;;;;;;8.80;5.50;;;;;;;12.94;82.40;99728.45;103594;1302;24306;-31
2022/04/15 08:49:08;;;;;;;4.40;3.60;;;;;;;12.90;81.80;99735.73;103590;1300;24218;-31
2022/04/15 08:51:38;;;;;;;9.40;5.00;;;;;;;12.69;84.28;99735.22;103630;1300;24306;-29
2022/04/15 08:54:08;;;;;;;9.10;5.50;;;;;;;12.78;83.89;99735.08;103465;1302;23645;-26
2022/04/15 08:56:37;;;;;;;6.80;4.60;;;;;;;12.29;86.84;99737.55;103480;1302;22499;-26
2022/04/15 08:59:06;;;;;;;4.40;3.90;;;;;;;12.67;85.28;99737.73;103549;1300;23554;-26
2022/04/15 09:01:35;;;;;;;5.70;4.90;;;;;;;12.42;86.32;99737.27;103479;1302;23790;-29
2022/04/15 09:04:04;;;;;;;4.70;4.10;;;;;;;12.44;87.15;99736.98;103510;1300;23752;-25
2022/04/15 09:06:33;;;;;;;7.50;5.40;;;;;;;12.20;87.76;99741.89;103563;1300;22945;-24
2022/04/15 09:09:02;;;;;;;9.10;6.50;;;;;;;12.23;87.24;99741.59;103496;1300;22654;-27
2022/04/15 09:11:32;;;;;;;9.40;4.30;;;;;;;12.11;88.34;99740.01;103590;1300;24216;-29
2022/04/15 09:14:03;;;;;;;7.40;6.50;;;;;;;12.15;87.17;99739.70;103463;1302;25000;-25
2022/04/15 09:16:37;;;;;;;6.40;4.30;;;;;;;11.87;89.26;99742.44;103596;1300;25250;-25
2022/04/15 09:19:07;;;;;;;9.90;6.90;;;;;;;12.15;88.01;99743.35;103590;1302;22511;-31
2022/04/15 09:21:37;;;;;;;7.70;5.40;;;;;;;12.30;87.79;99741.85;103594;1300;22771;-28
2022/04/15 09:24:07;;;;;;;18.00;8.40;;;;;;;12.33;87.30;99739.30;103485;1302;22602;-29
2022/04/15 09:26:36;;;;;;;7.10;5.60;;;;;;;12.11;89.37;99735.73;103521;1301;22502;-29
2022/04/15 09:29:05;;;;;;;12.20;5.10;;;;;;;12.52;88.66;99733.83;103491;1302;22632;-25
2022/04/15 09:31:34;;;;;;;6.50;4.30;;;;;;;12.86;85.18;99736.85;103545;1302;22635;-29
2022/04/15 09:34:03;;;;;;;23.40;7.80;;;;;;;13.20;82.81;99740.97;103555;1300;22514;-24
2022/04/15 09:36:35;;;;;;;15.00;8.30;;;;;;;12.77;84.04;99739.19;103585;1300;22635;-29
2022/04/15 09:39:10;;;;;;;11.20;6.70;;;;;;;12.56;84.96;99739.08;103567;1300;24281;-29
2022/04/15 09:41:41;;;;;;;16.50;10.30;;;;;;;12.64;85.12;99737.85;103602;1300;25025;-29
2022/04/15 09:44:11;;;;;;;10.40;6.30;;;;;;;12.73;84.93;99734.27;103586;1300;25212;-29
2022/04/15 09:46:41;;;;;;;5.50;4.80;;;;;;;12.86;82.34;99734.20;103513;1300;24290;-31
2022/04/15 09:49:11;;;;;;;5.40;4.20;;;;;;;12.66;84.42;99733.64;103500;1300;22508;-25
2022/04/15 09:51:41;;;;;;;5.70;3.20;;;;;;;12.96;82.74;99736.66;103581;1300;24315;-29
2022/04/15 09:54:20;;;;;;;4.20;3.70;;;;;;;12.94;83.35;99736.75;103538;1300;23796;-30
2022/04/15 09:56:49;;;;;;;7.10;5.20;;;;;;;13.04;83.26;99734.24;103580;1300;23617;-29
2022/04/15 09:59:20;;;;;;;6.60;4.60;;;;;;;12.89;84.07;99732.20;103469;1302;22832;-31
2022/04/15 10:01:53;;;;;;;4.60;4.00;;;;;;;12.91;83.54;99727.70;103602;1300;25348;-31
2022/04/15 10:04:52;;;;;;;9.60;7.00;;;;;;;13.08;81.59;99719.73;103529;1300;22712;-25
2022/04/15 10:07:20;;;;;;;4.90;3.20;;;;;;;12.97;82.70;99716.52;103573;1299;24251;-26
2022/04/15 10:09:49;;;;;;;8.30;5.70;;;;;;;13.31;82.77;99711.48;103583;1300;23761;-29
2022/04/15 10:12:18;;;;;;;4.50;3.80;;;;;;;13.86;80.92;99706.48;103625;1300;22818;-29
2022/04/15 10:14:48;;;;;;;9.80;6.90;;;;;;;14.20;78.02;99710.30;103570;1301;22511;-28
2022/04/15 10:17:19;;;;;;;7.80;6.80;;;;;;;14.66;74.72;99706.11;103373;1302;23880;-26
2022/04/15 10:19:49;;;;;;;7.10;4.40;;;;;;;14.69;73.20;99704.52;103563;1302;24098;-29
2022/04/15 10:22:18;;;;;;;7.30;4.90;;;;;;;15.23;71.82;99699.95;103581;1300;25082;-24
2022/04/15 10:24:47;;;;;;;7.30;6.30;;;;;;;15.91;69.78;99696.84;103556;1300;22506;-31
2022/04/15 10:27:23;;;;;;;7.80;5.50;;;;;;;16.20;68.71;99690.45;103535;1302;24219;-29
2022/04/15 10:29:59;;;;;;;8.70;6.70;;;;;;;16.81;66.43;99692.98;103600;1300;25105;-29
2022/04/15 10:32:28;;;;;;;10.70;6.00;;;;;;;16.55;66.81;99690.91;103520;1300;23925;-29
2022/04/15 10:34:57;;;;;;;8.20;6.20;;;;;;;16.98;64.00;99690.52;103544;1300;24365;-25
2022/04/15 10:37:45;;;;;;;7.90;6.60;;;;;;;16.13;65.15;99687.64;103545;1302;23607;-30
2022/04/15 10:40:21;;;;;;;7.80;6.10;;;;;;;15.78;66.60;99683.17;103520;1302;22531;-29
2022/04/15 10:42:50;;;;;;;10.70;6.90;;;;;;;15.60;65.55;99687.36;103536;1300;24456;-29
2022/04/15 10:45:25;;;;;;;6.70;5.00;;;;;;;15.46;65.81;99688.08;103474;1302;24215;-25
2022/04/15 10:47:57;;;;;;;10.50;6.40;;;;;;;15.45;65.92;99684.79;103486;1300;22636;-31
2022/04/15 10:50:28;;;;;;;7.20;5.50;;;;;;;15.12;66.91;99682.46;103554;1300;24226;-31
2022/04/15 10:53:04;;;;;;;11.80;7.20;;;;;;;14.94;66.64;99692.69;103551;1302;22867;-25
2022/04/15 10:55:43;;;;;;;6.60;6.00;;;;;;;14.70;68.37;99689.17;103527;1301;23865;-30
2022/04/15 10:58:13;;;;;;;7.30;6.50;;;;;;;14.63;67.47;99694.20;103546;1302;24024;-29
2022/04/15 11:03:18;;;;;;;;;;;;;;;13.44;73.70;99706.08;103520;1302;22610;-25
2022/04/15 11:05:53;;;;;;;4.30;2.40;;;;;;;12.52;77.77;99717.98;103453;1301;23905;-25
2022/04/15 11:08:23;;;;;;;3.30;3.00;;;;;;;11.74;81.45;99725.33;103556;1300;23645;-29
2022/04/15 11:11:03;;;;;;;3.20;2.30;;;;;;;11.36;82.84;99735.11;103532;1300;24224;-29
2022/04/15 11:13:55;;;;;;;2.00;1.40;;;;;;;10.88;84.73;99737.33;103577;1300;22918;-29
2022/04/15 11:16:38;;;;;;;8.40;1.90;;;;;;;10.78;85.84;99737.40;103546;1300;24247;-29
2022/04/15 11:19:07;;;;;;;1.60;1.30;;;;;;;10.55;87.84;99745.00;103609;1300;24282;-29
2022/04/15 11:21:37;;;;;;;2.00;1.70;;;;;;;10.40;89.50;99749.82;103438;1300;23408;-29
2022/04/15 11:24:08;;;;;;;2.70;1.70;;;;;;;10.47;89.44;99748.05;103546;1301;23935;-26
2022/04/15 11:26:39;;;;;;;1.50;0.90;;;;;;;10.69;88.43;99746.79;103618;1300;23597;-29
2022/04/15 11:29:11;;;;;;;1.20;0.80;;;;;;;10.67;87.25;99750.23;103583;1299;25005;-24
2022/04/15 11:31:41;;;;;;;1.30;0.90;;;;;;;10.94;86.93;99753.98;103556;1300;22968;-26
2022/04/15 11:34:14;;;;;;;1.30;1.00;;;;;;;11.27;86.08;99751.76;103541;1300;25497;-26
2022/04/15 11:36:45;;;;;;;1.80;1.20;;;;;;;11.19;84.51;99751.27;103541;1300;22951;-29